Goliah — WDD5908 — position and weather

sailwx.info

Track history (hours):
 
Tides and Currents Weather Stations Pressure Air Temp Water Temp Dewpoint Dewpoint Depression Visibility Wind Speed Wind Dir Waves Ship Positions

Goliah

Owner: Crowley Marine Services, Seattle, WA. More information available from US FCC via Universal Licensing System and Coast Guard Vessel Documentation Center.

Last reported at 2018-Feb-20 08:01 UTC. Time now 2018-Feb-20 08:12 UTC.
Position N 38°02' W 122°08'.

Length 33 m; draft 4.8 m.

Type: Tug. MMSI: 366898250.

Date/timePositionNaut miles runAvg speedWind from/ knotsBaromVisibWave heightAir tempDewpointWater temp
2018-Feb-20 08:01N 38°02' W 122°08'0 0.3
2018-Feb-20 06:46N 38°02' W 122°08'0 0.2
2018-Feb-20 06:30N 38°02' W 122°08'0 0.0
2018-Feb-18 20:15N 38°02' W 122°08'2 0.6
2018-Feb-18 17:24N 38°03' W 122°11'3 8.1
2018-Feb-18 17:00N 38°04' W 122°15'4 8.2
2018-Feb-18 16:30N 38°03' W 122°20'4 8.9
2018-Feb-18 16:00N 38°00' W 122°24'4 8.9
2018-Feb-18 15:30N 37°56' W 122°26'5 9.4
2018-Feb-18 15:00N 37°51' W 122°24'4 7.7
2018-Feb-18 14:30N 37°48' W 122°20'0 0.6
2018-Feb-18 14:01N 37°49' W 122°20'0 0.6
2018-Feb-18 13:30N 37°49' W 122°20'2 4.6
2018-Feb-18 13:00N 37°48' W 122°23'2 3.7
2018-Feb-18 12:30N 37°48' W 122°21'0 0.0
2018-Feb-18 12:00N 37°48' W 122°21'0 0.0
2018-Feb-18 11:31N 37°48' W 122°21'0 0.3
2018-Feb-18 11:00N 37°48' W 122°20'0 0.6
2018-Feb-18 10:31N 37°48' W 122°21'2 4.8
2018-Feb-18 10:00N 37°48' W 122°24'0 0.0
2018-Feb-18 09:30N 37°48' W 122°24'0 0.0
2018-Feb-18 09:00N 37°48' W 122°24'0 0.0
2018-Feb-18 08:30N 37°48' W 122°24'0 0.0
2018-Feb-18 07:57N 37°48' W 122°24'0 0.0
2018-Feb-18 07:30N 37°48' W 122°24'0 0.6
2018-Feb-18 07:00N 37°48' W 122°24'4 8.6
2018-Feb-18 06:30N 37°48' W 122°29'1 1.1
2018-Feb-18 06:00N 37°48' W 122°30'4 7.1
2018-Feb-18 05:31N 37°50' W 122°26'4 8.8
2018-Feb-18 05:01N 37°47' W 122°22'2 3.0
2018-Feb-18 04:29N 37°46' W 122°21'0 0.5
2018-Feb-18 03:59N 37°46' W 122°21'1 2.3
2018-Feb-18 03:30N 37°45' W 122°21'3 5.5
2018-Feb-18 03:00N 37°48' W 122°23'5 9.0
2018-Feb-18 02:30N 37°49' W 122°28'1 2.3
2018-Feb-18 02:00N 37°48' W 122°29'0 0.7
2018-Feb-18 01:30N 37°48' W 122°29'3 5.7
2018-Feb-18 01:00N 37°49' W 122°26'2 3.5
2018-Feb-18 00:29N 37°48' W 122°24'0 0.0
2018-Feb-17 23:59N 37°48' W 122°24'0 0.0
2018-Feb-17 23:29N 37°48' W 122°24'3 6.3
2018-Feb-17 23:00N 37°49' W 122°20'2 4.6
2018-Feb-17 22:29N 37°46' W 122°21'3 7.1
2018-Feb-17 22:00N 37°49' W 122°23'510.1
2018-Feb-17 21:30N 37°54' W 122°26'5 9.6
2018-Feb-17 21:00N 37°59' W 122°26'5 9.3
2018-Feb-17 20:30N 38°02' W 122°22'4 8.8
2018-Feb-17 20:00N 38°04' W 122°17'4 7.9
2018-Feb-17 19:30N 38°03' W 122°12'3 6.9
2018-Feb-17 19:00N 38°02' W 122°08'0 0.1
2018-Feb-17 18:29N 38°02' W 122°08'1 2.4
2018-Feb-17 18:00N 38°02' W 122°09'0 0.0
2018-Feb-17 01:25N 38°02' W 122°09'1 0.5
2018-Feb-16 23:54N 38°02' W 122°08'1 0.5
2018-Feb-16 22:03N 38°02' W 122°09'0 7.7
2018-Feb-16 22:00N 38°02' W 122°09'12 7.7
2018-Feb-16 20:28N 38°03' W 121°54'1 0.9
2018-Feb-16 19:51N 38°03' W 121°53'611.9
2018-Feb-16 19:21N 38°04' W 122°00'410.4
2018-Feb-16 19:00N 38°03' W 122°05'4 0.4
2018-Feb-16 09:30N 38°02' W 122°09'1 0.9
2018-Feb-16 08:19N 38°02' W 122°08'1 2.0
2018-Feb-16 07:39N 38°02' W 122°10'1 7.3
2018-Feb-16 07:30N 38°03' W 122°11'5 9.3
2018-Feb-16 07:00N 38°03' W 122°17'510.9
2018-Feb-16 06:31N 38°01' W 122°23'611.1
2018-Feb-16 06:00N 37°56' W 122°26'1 1.5
2018-Feb-16 05:31N 37°56' W 122°25'0 0.5
2018-Feb-16 05:00N 37°55' W 122°25'4 8.4
2018-Feb-16 04:30N 37°51' W 122°25'3 6.2
2018-Feb-16 04:01N 37°48' W 122°24'0 0.0
2018-Feb-16 03:31N 37°48' W 122°24'0 0.0
2018-Feb-16 03:00N 37°48' W 122°24'0 0.0
2018-Feb-16 02:30N 37°48' W 122°24'0 0.0
2018-Feb-16 02:00N 37°48' W 122°24'0 0.0
2018-Feb-16 01:31N 37°48' W 122°24'0 0.0
2018-Feb-16 01:01N 37°48' W 122°24'0 0.0
2018-Feb-16 00:30N 37°48' W 122°24'0 0.0
2018-Feb-16 00:00N 37°48' W 122°24'0 0.0
2018-Feb-15 23:31N 37°48' W 122°24'0 0.0
2018-Feb-15 23:01N 37°48' W 122°24'0 0.0
2018-Feb-15 22:31N 37°48' W 122°24'0 0.0
2018-Feb-15 22:01N 37°48' W 122°24'0 0.0
2018-Feb-15 21:30N 37°48' W 122°24'0 0.0
2018-Feb-15 21:01N 37°48' W 122°24'0 0.0
2018-Feb-15 20:31N 37°48' W 122°24'0 0.0
2018-Feb-15 20:01N 37°48' W 122°24'0 0.0
2018-Feb-15 19:30N 37°48' W 122°24'0 0.0
2018-Feb-15 19:00N 37°48' W 122°24'4 8.7
2018-Feb-15 18:31N 37°52' W 122°25'3 6.3
2018-Feb-15 18:00N 37°56' W 122°25'0 0.1
2018-Feb-15 17:31N 37°56' W 122°25'1 1.7
2018-Feb-15 17:01N 37°55' W 122°25'1 2.8
2018-Feb-15 16:31N 37°53' W 122°25'2 3.7
2018-Feb-15 16:00N 37°55' W 122°25'0 0.0
2018-Feb-15 15:30N 37°55' W 122°25'0 0.0
2018-Feb-15 15:00N 37°55' W 122°25'0 0.0
2018-Feb-15 14:30N 37°55' W 122°25'0 0.0
2018-Feb-15 14:01N 37°55' W 122°25'0 0.0
2018-Feb-15 13:30N 37°55' W 122°25'0 0.0
2018-Feb-15 13:00N 37°55' W 122°25'0 1.0
2018-Feb-15 12:30N 37°56' W 122°25'510.8
2018-Feb-15 12:00N 38°01' W 122°24'611.1
2018-Feb-15 11:30N 38°03' W 122°17'1 2.3
2018-Feb-15 11:00N 38°03' W 122°16'0 0.7
2018-Feb-15 10:31N 38°04' W 122°15'5 2.8
2018-Feb-15 08:42N 38°02' W 122°09'1 1.3
2018-Feb-15 08:02N 38°02' W 122°08'0 2.4
2018-Feb-15 08:00N 38°02' W 122°08'2 0.6
2018-Feb-15 04:26N 38°03' W 122°11'3 6.3
2018-Feb-15 04:00N 38°04' W 122°14'3 6.1
2018-Feb-15 03:30N 38°03' W 122°18'3 6.5
2018-Feb-15 03:00N 38°02' W 122°22'4 6.8
2018-Feb-15 02:30N 37°59' W 122°25'3 6.6
2018-Feb-15 02:01N 37°56' W 122°26'4 7.1
2018-Feb-15 01:30N 37°53' W 122°25'4 8.1
2018-Feb-15 01:00N 37°50' W 122°22'2 3.3
2018-Feb-15 00:31N 37°49' W 122°20'0 0.0
2018-Feb-15 00:01N 37°49' W 122°20'2 4.0
2018-Feb-14 23:30N 37°48' W 122°22'1 2.4
2018-Feb-14 23:00N 37°48' W 122°21'1 2.2
2018-Feb-14 22:31N 37°49' W 122°19'0 0.0
2018-Feb-14 22:00N 37°49' W 122°19'4 7.1
2018-Feb-14 21:30N 37°48' W 122°24'0 0.0
2018-Feb-14 21:00N 37°48' W 122°24'0 0.0
2018-Feb-14 20:31N 37°48' W 122°24'0 0.0
2018-Feb-14 20:01N 37°48' W 122°24'0 0.0
2018-Feb-14 19:30N 37°48' W 122°24'0 0.0
2018-Feb-14 19:00N 37°48' W 122°24'0 0.0
2018-Feb-14 18:31N 37°48' W 122°24'0 0.0
2018-Feb-14 18:00N 37°48' W 122°24'0 0.0
2018-Feb-14 17:31N 37°48' W 122°24'0 0.0
2018-Feb-14 17:01N 37°48' W 122°24'0 0.0
2018-Feb-14 16:30N 37°48' W 122°24'1 2.8
2018-Feb-14 16:01N 37°48' W 122°22'2 5.0
2018-Feb-14 15:31N 37°48' W 122°19'1 1.2
2018-Feb-14 15:00N 37°48' W 122°18'1 1.3
2018-Feb-14 14:31N 37°48' W 122°17'1 2.4
2018-Feb-14 14:00N 37°48' W 122°19'2 4.0
2018-Feb-14 13:30N 37°48' W 122°21'1 1.7
2018-Feb-14 13:01N 37°48' W 122°21'0 0.3
2018-Feb-14 12:31N 37°48' W 122°20'0 0.8
2018-Feb-14 12:00N 37°49' W 122°20'0 0.0
2018-Feb-14 11:30N 37°49' W 122°20'0 0.0
2018-Feb-14 11:00N 37°49' W 122°20'0 0.0
2018-Feb-14 10:30N 37°49' W 122°20'0 0.0
2018-Feb-14 10:01N 37°49' W 122°20'0 0.0
2018-Feb-14 09:30N 37°49' W 122°20'0 0.0
2018-Feb-14 09:01N 37°49' W 122°20'0 0.0
2018-Feb-14 08:31N 37°49' W 122°20'0 0.0
2018-Feb-14 08:01N 37°49' W 122°20'0 0.0
2018-Feb-14 07:30N 37°49' W 122°20'0 0.0
2018-Feb-14 07:01N 37°49' W 122°20'0 0.0
2018-Feb-14 06:31N 37°49' W 122°20'0 0.0
2018-Feb-14 06:00N 37°49' W 122°20'0 0.0
2018-Feb-14 05:30N 37°49' W 122°20'3 5.6
2018-Feb-14 05:01N 37°51' W 122°23'5 9.6
2018-Feb-14 04:31N 37°55' W 122°25'1 1.5
2018-Feb-14 04:00N 37°55' W 122°25'0 0.0
2018-Feb-14 03:31N 37°55' W 122°25'0 0.3
2018-Feb-14 03:00N 37°55' W 122°25'3 5.1
2018-Feb-14 02:30N 37°53' W 122°25'3 5.5
2018-Feb-14 02:00N 37°51' W 122°23'3 5.5
2018-Feb-14 01:30N 37°49' W 122°20'1 1.2
2018-Feb-14 01:00N 37°49' W 122°19'1 1.7
2018-Feb-14 00:30N 37°48' W 122°21'3 5.2
2018-Feb-14 00:00N 37°48' W 122°24'0 0.2
2018-Feb-13 23:31N 37°48' W 122°24'0 0.0
2018-Feb-13 23:00N 37°48' W 122°24'0 0.0
2018-Feb-13 22:31N 37°48' W 122°24'0 0.0
2018-Feb-13 22:01N 37°48' W 122°24'0 0.0
2018-Feb-13 21:30N 37°48' W 122°24'3 6.1
2018-Feb-13 21:00N 37°51' W 122°25'611.8
2018-Feb-13 20:30N 37°57' W 122°26'510.7
2018-Feb-13 20:00N 38°02' W 122°22'5 9.7
2018-Feb-13 19:30N 38°03' W 122°17'1 1.1
2018-Feb-13 18:58N 38°03' W 122°16'0 0.1
2018-Feb-13 18:29N 38°03' W 122°16'1 2.9
2018-Feb-13 18:00N 38°03' W 122°18'0 0.5
2018-Feb-13 17:30N 38°03' W 122°18'3 6.7
2018-Feb-13 17:00N 38°02' W 122°22'4 8.7
2018-Feb-13 16:30N 37°59' W 122°25'4 8.4
2018-Feb-13 16:00N 37°55' W 122°24'2 4.5
2018-Feb-13 15:31N 37°55' W 122°22'0 0.0
2018-Feb-13 15:00N 37°55' W 122°22'0 0.0
2018-Feb-13 14:30N 37°55' W 122°22'0 0.0
2018-Feb-13 14:01N 37°55' W 122°22'0 0.0
2018-Feb-13 13:31N 37°55' W 122°22'0 0.4
2018-Feb-13 13:00N 37°55' W 122°22'0 0.3
2018-Feb-13 12:30N 37°55' W 122°22'1 1.8
2018-Feb-13 12:00N 37°54' W 122°22'2 4.8
2018-Feb-13 11:30N 37°55' W 122°25'2 3.9
2018-Feb-13 11:01N 37°53' W 122°25'0 0.7
2018-Feb-13 10:30N 37°53' W 122°25'2 3.7
2018-Feb-13 10:00N 37°55' W 122°25'1 1.4
2018-Feb-13 09:30N 37°55' W 122°25'1 1.4
2018-Feb-13 09:00N 37°55' W 122°25'4 8.3
2018-Feb-13 08:30N 37°51' W 122°25'5 9.4
2018-Feb-13 08:01N 37°47' W 122°21'0 0.6
2018-Feb-13 07:30N 37°47' W 122°21'2 3.3
2018-Feb-13 07:01N 37°48' W 122°21'0 0.0
2018-Feb-13 06:31N 37°48' W 122°21'1 1.9
2018-Feb-13 06:01N 37°48' W 122°20'1 1.2
2018-Feb-13 05:30N 37°48' W 122°19'0 0.0
2018-Feb-13 05:00N 37°48' W 122°19'1 2.8
2018-Feb-13 04:30N 37°49' W 122°20'0 0.1
2018-Feb-13 04:00N 37°49' W 122°20'0 0.0
2018-Feb-13 03:31N 37°49' W 122°20'0 0.0
2018-Feb-13 03:01N 37°49' W 122°20'0 0.1
2018-Feb-13 02:30N 37°49' W 122°20'0 0.0
2018-Feb-13 02:00N 37°49' W 122°20'0 0.0
2018-Feb-13 01:30N 37°49' W 122°20'0 0.1
2018-Feb-13 01:01N 37°49' W 122°20'0 0.1
2018-Feb-13 00:30N 37°49' W 122°20'1 1.1
2018-Feb-13 00:00N 37°49' W 122°20'2 3.9
2018-Feb-12 23:30N 37°48' W 122°22'2 3.1
2018-Feb-12 23:00N 37°48' W 122°24'0 0.0
2018-Feb-12 22:30N 37°48' W 122°24'0 0.0
2018-Feb-12 22:00N 37°48' W 122°24'0 0.0
2018-Feb-12 21:30N 37°48' W 122°24'0 0.0
2018-Feb-12 21:01N 37°48' W 122°24'0 0.0
2018-Feb-12 20:31N 37°48' W 122°24'0 0.6
2018-Feb-12 20:00N 37°48' W 122°24'2 3.9
2018-Feb-12 19:30N 37°47' W 122°21'4 8.5
2018-Feb-12 19:00N 37°51' W 122°24'510.5
2018-Feb-12 18:30N 37°56' W 122°27'5 9.6
2018-Feb-12 18:00N 38°00' W 122°25'5 9.2
2018-Feb-12 17:30N 38°03' W 122°20'4 7.5
2018-Feb-12 17:00N 38°04' W 122°16'2 4.4
2018-Feb-12 16:30N 38°04' W 122°13'3 4.6
2018-Feb-12 15:45N 38°02' W 122°09'2 2.2
2018-Feb-12 14:41N 38°03' W 122°06'1 5.0
2018-Feb-12 14:29N 38°02' W 122°07'1 0.2
2018-Feb-12 06:24N 38°02' W 122°09'1 3.1
2018-Feb-12 06:00N 38°02' W 122°07'1 0.2
2018-Feb-11 20:37N 38°02' W 122°09'3 6.3
2018-Feb-11 20:13N 38°03' W 122°06'0 0.0
2018-Feb-11 19:58N 38°03' W 122°06'2 2.5
2018-Feb-11 19:19N 38°02' W 122°08'3 5.5
2018-Feb-11 18:50N 38°03' W 122°11'2 6.9
2018-Feb-11 18:30N 38°04' W 122°14'5 9.5
2018-Feb-11 18:00N 38°03' W 122°20'5 9.7
2018-Feb-11 17:30N 38°00' W 122°25'4 7.8
2018-Feb-11 17:00N 37°57' W 122°26'4 7.9
2018-Feb-11 16:31N 37°54' W 122°22'1 1.2
2018-Feb-11 16:00N 37°55' W 122°22'0 0.0
2018-Feb-11 15:31N 37°55' W 122°22'0 0.3
2018-Feb-11 15:00N 37°55' W 122°22'0 0.1
2018-Feb-11 14:31N 37°55' W 122°22'0 0.1
2018-Feb-11 14:00N 37°55' W 122°22'0 0.0
2018-Feb-11 13:30N 37°55' W 122°22'0 0.1
2018-Feb-11 13:00N 37°55' W 122°22'0 0.0
2018-Feb-11 12:30N 37°55' W 122°22'0 0.1
2018-Feb-11 12:00N 37°55' W 122°22'0 0.1
2018-Feb-11 11:30N 37°55' W 122°22'0 0.0
2018-Feb-11 10:59N 37°55' W 122°22'0 0.0
2018-Feb-11 10:30N 37°55' W 122°22'0 0.0
2018-Feb-11 10:00N 37°55' W 122°22'0 0.0
2018-Feb-11 09:30N 37°55' W 122°22'0 0.1
2018-Feb-11 09:01N 37°55' W 122°22'0 0.0
2018-Feb-11 08:31N 37°55' W 122°22'0 0.0
2018-Feb-11 08:00N 37°55' W 122°22'0 0.0
2018-Feb-11 07:31N 37°55' W 122°22'0 0.0
2018-Feb-11 07:00N 37°55' W 122°22'0 0.0
2018-Feb-11 06:30N 37°55' W 122°22'0 0.0
2018-Feb-11 06:00N 37°55' W 122°22'0 0.0
2018-Feb-11 05:30N 37°55' W 122°22'0 0.0
2018-Feb-11 05:01N 37°55' W 122°22'2 3.6
2018-Feb-11 04:31N 37°54' W 122°24'1 1.8
2018-Feb-11 04:00N 37°55' W 122°25'0 0.0
2018-Feb-11 03:30N 37°55' W 122°25'0 0.0
2018-Feb-11 03:01N 37°55' W 122°25'2 3.8
2018-Feb-11 02:30N 37°54' W 122°22'1 1.6
2018-Feb-11 02:01N 37°55' W 122°22'0 0.0
2018-Feb-11 01:30N 37°55' W 122°22'0 0.0
2018-Feb-11 01:00N 37°55' W 122°22'0 0.0
2018-Feb-11 00:30N 37°55' W 122°22'0 0.0
2018-Feb-10 23:59N 37°55' W 122°22'0 0.0
2018-Feb-10 23:30N 37°55' W 122°22'0 0.0
2018-Feb-10 23:00N 37°55' W 122°22'0 0.0
2018-Feb-10 22:31N 37°55' W 122°22'0 0.0
2018-Feb-10 22:01N 37°55' W 122°22'0 0.0
2018-Feb-10 21:30N 37°55' W 122°22'0 0.0
2018-Feb-10 21:01N 37°55' W 122°22'0 0.1
2018-Feb-10 20:31N 37°55' W 122°22'0 0.1
2018-Feb-10 20:00N 37°55' W 122°22'0 0.0
2018-Feb-10 19:31N 37°55' W 122°22'0 0.1
2018-Feb-10 18:59N 37°55' W 122°22'0 0.0
2018-Feb-10 18:29N 37°55' W 122°22'0 0.1
2018-Feb-10 18:00N 37°55' W 122°22'0 0.0
2018-Feb-10 17:30N 37°55' W 122°22'0 0.1
2018-Feb-10 17:00N 37°55' W 122°22'0 0.1
2018-Feb-10 16:30N 37°55' W 122°22'0 0.0
2018-Feb-10 16:00N 37°55' W 122°22'0 0.1
2018-Feb-10 15:30N 37°55' W 122°22'0 0.0
2018-Feb-10 15:00N 37°55' W 122°22'0 0.0
2018-Feb-10 14:30N 37°55' W 122°22'0 0.1
2018-Feb-10 14:00N 37°55' W 122°22'0 0.0
2018-Feb-10 13:28N 37°55' W 122°22'0 0.0
2018-Feb-10 13:01N 37°55' W 122°22'0 0.0
2018-Feb-10 12:30N 37°55' W 122°22'0 0.3
2018-Feb-10 12:00N 37°55' W 122°22'0 0.6
2018-Feb-10 11:31N 37°54' W 122°22'2 4.1
2018-Feb-10 11:00N 37°55' W 122°24'2 4.5
2018-Feb-10 10:31N 37°52' W 122°25'5 9.0
2018-Feb-10 10:00N 37°49' W 122°29'2 3.9
2018-Feb-10 09:30N 37°49' W 122°31'0 0.4
2018-Feb-10 09:01N 37°49' W 122°31'3 6.6
2018-Feb-10 08:30N 37°49' W 122°27'  
Track history (hours):
 
Tides and Currents Weather Stations Pressure Air Temp Water Temp Dewpoint Dewpoint Depression Visibility Wind Speed Wind Dir Waves Ship Positions

Goliah

Owner: Crowley Marine Services, Seattle, WA. More information available from US FCC via Universal Licensing System and Coast Guard Vessel Documentation Center.

Last reported at 2018-Feb-20 08:01 UTC. Time now 2018-Feb-20 08:12 UTC.
Position N 38°02' W 122°08'.

Length 33 m; draft 4.8 m.

Type: Tug. MMSI: 366898250.

Date/timePositionNaut miles runAvg speedWind from/ knotsBaromVisibWave heightAir tempDewpointWater temp
2018-Feb-20 08:01N 38°02' W 122°08'0 0.3
2018-Feb-20 06:46N 38°02' W 122°08'0 0.2
2018-Feb-20 06:30N 38°02' W 122°08'0 0.0
2018-Feb-18 20:15N 38°02' W 122°08'2 0.6
2018-Feb-18 17:24N 38°03' W 122°11'3 8.1
2018-Feb-18 17:00N 38°04' W 122°15'4 8.2
2018-Feb-18 16:30N 38°03' W 122°20'4 8.9
2018-Feb-18 16:00N 38°00' W 122°24'4 8.9
2018-Feb-18 15:30N 37°56' W 122°26'5 9.4
2018-Feb-18 15:00N 37°51' W 122°24'4 7.7
2018-Feb-18 14:30N 37°48' W 122°20'0 0.6
2018-Feb-18 14:01N 37°49' W 122°20'0 0.6
2018-Feb-18 13:30N 37°49' W 122°20'2 4.6
2018-Feb-18 13:00N 37°48' W 122°23'2 3.7
2018-Feb-18 12:30N 37°48' W 122°21'0 0.0
2018-Feb-18 12:00N 37°48' W 122°21'0 0.0
2018-Feb-18 11:31N 37°48' W 122°21'0 0.3
2018-Feb-18 11:00N 37°48' W 122°20'0 0.6
2018-Feb-18 10:31N 37°48' W 122°21'2 4.8
2018-Feb-18 10:00N 37°48' W 122°24'0 0.0
2018-Feb-18 09:30N 37°48' W 122°24'0 0.0
2018-Feb-18 09:00N 37°48' W 122°24'0 0.0
2018-Feb-18 08:30N 37°48' W 122°24'0 0.0
2018-Feb-18 07:57N 37°48' W 122°24'0 0.0
2018-Feb-18 07:30N 37°48' W 122°24'0 0.6
2018-Feb-18 07:00N 37°48' W 122°24'4 8.6
2018-Feb-18 06:30N 37°48' W 122°29'1 1.1
2018-Feb-18 06:00N 37°48' W 122°30'4 7.1
2018-Feb-18 05:31N 37°50' W 122°26'4 8.8
2018-Feb-18 05:01N 37°47' W 122°22'2 3.0
2018-Feb-18 04:29N 37°46' W 122°21'0 0.5
2018-Feb-18 03:59N 37°46' W 122°21'1 2.3
2018-Feb-18 03:30N 37°45' W 122°21'3 5.5
2018-Feb-18 03:00N 37°48' W 122°23'5 9.0
2018-Feb-18 02:30N 37°49' W 122°28'1 2.3
2018-Feb-18 02:00N 37°48' W 122°29'0 0.7
2018-Feb-18 01:30N 37°48' W 122°29'3 5.7
2018-Feb-18 01:00N 37°49' W 122°26'2 3.5
2018-Feb-18 00:29N 37°48' W 122°24'0 0.0
2018-Feb-17 23:59N 37°48' W 122°24'0 0.0
2018-Feb-17 23:29N 37°48' W 122°24'3 6.3
2018-Feb-17 23:00N 37°49' W 122°20'2 4.6
2018-Feb-17 22:29N 37°46' W 122°21'3 7.1
2018-Feb-17 22:00N 37°49' W 122°23'510.1
2018-Feb-17 21:30N 37°54' W 122°26'5 9.6
2018-Feb-17 21:00N 37°59' W 122°26'5 9.3
2018-Feb-17 20:30N 38°02' W 122°22'4 8.8
2018-Feb-17 20:00N 38°04' W 122°17'4 7.9
2018-Feb-17 19:30N 38°03' W 122°12'3 6.9
2018-Feb-17 19:00N 38°02' W 122°08'0 0.1
2018-Feb-17 18:29N 38°02' W 122°08'1 2.4
2018-Feb-17 18:00N 38°02' W 122°09'0 0.0
2018-Feb-17 01:25N 38°02' W 122°09'1 0.5
2018-Feb-16 23:54N 38°02' W 122°08'1 0.5
2018-Feb-16 22:03N 38°02' W 122°09'0 7.7
2018-Feb-16 22:00N 38°02' W 122°09'12 7.7
2018-Feb-16 20:28N 38°03' W 121°54'1 0.9
2018-Feb-16 19:51N 38°03' W 121°53'611.9
2018-Feb-16 19:21N 38°04' W 122°00'410.4
2018-Feb-16 19:00N 38°03' W 122°05'4 0.4
2018-Feb-16 09:30N 38°02' W 122°09'1 0.9
2018-Feb-16 08:19N 38°02' W 122°08'1 2.0
2018-Feb-16 07:39N 38°02' W 122°10'1 7.3
2018-Feb-16 07:30N 38°03' W 122°11'5 9.3
2018-Feb-16 07:00N 38°03' W 122°17'510.9
2018-Feb-16 06:31N 38°01' W 122°23'611.1
2018-Feb-16 06:00N 37°56' W 122°26'1 1.5
2018-Feb-16 05:31N 37°56' W 122°25'0 0.5
2018-Feb-16 05:00N 37°55' W 122°25'4 8.4
2018-Feb-16 04:30N 37°51' W 122°25'3 6.2
2018-Feb-16 04:01N 37°48' W 122°24'0 0.0
2018-Feb-16 03:31N 37°48' W 122°24'0 0.0
2018-Feb-16 03:00N 37°48' W 122°24'0 0.0
2018-Feb-16 02:30N 37°48' W 122°24'0 0.0
2018-Feb-16 02:00N 37°48' W 122°24'0 0.0
2018-Feb-16 01:31N 37°48' W 122°24'0 0.0
2018-Feb-16 01:01N 37°48' W 122°24'0 0.0
2018-Feb-16 00:30N 37°48' W 122°24'0 0.0
2018-Feb-16 00:00N 37°48' W 122°24'0 0.0
2018-Feb-15 23:31N 37°48' W 122°24'0 0.0
2018-Feb-15 23:01N 37°48' W 122°24'0 0.0
2018-Feb-15 22:31N 37°48' W 122°24'0 0.0
2018-Feb-15 22:01N 37°48' W 122°24'0 0.0
2018-Feb-15 21:30N 37°48' W 122°24'0 0.0
2018-Feb-15 21:01N 37°48' W 122°24'0 0.0
2018-Feb-15 20:31N 37°48' W 122°24'0 0.0
2018-Feb-15 20:01N 37°48' W 122°24'0 0.0
2018-Feb-15 19:30N 37°48' W 122°24'0 0.0
2018-Feb-15 19:00N 37°48' W 122°24'4 8.7
2018-Feb-15 18:31N 37°52' W 122°25'3 6.3
2018-Feb-15 18:00N 37°56' W 122°25'0 0.1
2018-Feb-15 17:31N 37°56' W 122°25'1 1.7
2018-Feb-15 17:01N 37°55' W 122°25'1 2.8
2018-Feb-15 16:31N 37°53' W 122°25'2 3.7
2018-Feb-15 16:00N 37°55' W 122°25'0 0.0
2018-Feb-15 15:30N 37°55' W 122°25'0 0.0
2018-Feb-15 15:00N 37°55' W 122°25'0 0.0
2018-Feb-15 14:30N 37°55' W 122°25'0 0.0
2018-Feb-15 14:01N 37°55' W 122°25'0 0.0
2018-Feb-15 13:30N 37°55' W 122°25'0 0.0
2018-Feb-15 13:00N 37°55' W 122°25'0 1.0
2018-Feb-15 12:30N 37°56' W 122°25'510.8
2018-Feb-15 12:00N 38°01' W 122°24'611.1
2018-Feb-15 11:30N 38°03' W 122°17'1 2.3
2018-Feb-15 11:00N 38°03' W 122°16'0 0.7
2018-Feb-15 10:31N 38°04' W 122°15'5 2.8
2018-Feb-15 08:42N 38°02' W 122°09'1 1.3
2018-Feb-15 08:02N 38°02' W 122°08'0 2.4
2018-Feb-15 08:00N 38°02' W 122°08'2 0.6
2018-Feb-15 04:26N 38°03' W 122°11'3 6.3
2018-Feb-15 04:00N 38°04' W 122°14'3 6.1
2018-Feb-15 03:30N 38°03' W 122°18'3 6.5
2018-Feb-15 03:00N 38°02' W 122°22'4 6.8
2018-Feb-15 02:30N 37°59' W 122°25'3 6.6
2018-Feb-15 02:01N 37°56' W 122°26'4 7.1
2018-Feb-15 01:30N 37°53' W 122°25'4 8.1
2018-Feb-15 01:00N 37°50' W 122°22'2 3.3
2018-Feb-15 00:31N 37°49' W 122°20'0 0.0
2018-Feb-15 00:01N 37°49' W 122°20'2 4.0
2018-Feb-14 23:30N 37°48' W 122°22'1 2.4
2018-Feb-14 23:00N 37°48' W 122°21'1 2.2
2018-Feb-14 22:31N 37°49' W 122°19'0 0.0
2018-Feb-14 22:00N 37°49' W 122°19'4 7.1
2018-Feb-14 21:30N 37°48' W 122°24'0 0.0
2018-Feb-14 21:00N 37°48' W 122°24'0 0.0
2018-Feb-14 20:31N 37°48' W 122°24'0 0.0
2018-Feb-14 20:01N 37°48' W 122°24'0 0.0
2018-Feb-14 19:30N 37°48' W 122°24'0 0.0
2018-Feb-14 19:00N 37°48' W 122°24'0 0.0
2018-Feb-14 18:31N 37°48' W 122°24'0 0.0
2018-Feb-14 18:00N 37°48' W 122°24'0 0.0
2018-Feb-14 17:31N 37°48' W 122°24'0 0.0
2018-Feb-14 17:01N 37°48' W 122°24'0 0.0
2018-Feb-14 16:30N 37°48' W 122°24'1 2.8
2018-Feb-14 16:01N 37°48' W 122°22'2 5.0
2018-Feb-14 15:31N 37°48' W 122°19'1 1.2
2018-Feb-14 15:00N 37°48' W 122°18'1 1.3
2018-Feb-14 14:31N 37°48' W 122°17'1 2.4
2018-Feb-14 14:00N 37°48' W 122°19'2 4.0
2018-Feb-14 13:30N 37°48' W 122°21'1 1.7
2018-Feb-14 13:01N 37°48' W 122°21'0 0.3
2018-Feb-14 12:31N 37°48' W 122°20'0 0.8
2018-Feb-14 12:00N 37°49' W 122°20'0 0.0
2018-Feb-14 11:30N 37°49' W 122°20'0 0.0
2018-Feb-14 11:00N 37°49' W 122°20'0 0.0
2018-Feb-14 10:30N 37°49' W 122°20'0 0.0
2018-Feb-14 10:01N 37°49' W 122°20'0 0.0
2018-Feb-14 09:30N 37°49' W 122°20'0 0.0
2018-Feb-14 09:01N 37°49' W 122°20'0 0.0
2018-Feb-14 08:31N 37°49' W 122°20'0 0.0
2018-Feb-14 08:01N 37°49' W 122°20'0 0.0
2018-Feb-14 07:30N 37°49' W 122°20'0 0.0
2018-Feb-14 07:01N 37°49' W 122°20'0 0.0
2018-Feb-14 06:31N 37°49' W 122°20'0 0.0
2018-Feb-14 06:00N 37°49' W 122°20'0 0.0
2018-Feb-14 05:30N 37°49' W 122°20'3 5.6
2018-Feb-14 05:01N 37°51' W 122°23'5 9.6
2018-Feb-14 04:31N 37°55' W 122°25'1 1.5
2018-Feb-14 04:00N 37°55' W 122°25'0 0.0
2018-Feb-14 03:31N 37°55' W 122°25'0 0.3
2018-Feb-14 03:00N 37°55' W 122°25'3 5.1
2018-Feb-14 02:30N 37°53' W 122°25'3 5.5
2018-Feb-14 02:00N 37°51' W 122°23'3 5.5
2018-Feb-14 01:30N 37°49' W 122°20'1 1.2
2018-Feb-14 01:00N 37°49' W 122°19'1 1.7
2018-Feb-14 00:30N 37°48' W 122°21'3 5.2
2018-Feb-14 00:00N 37°48' W 122°24'0 0.2
2018-Feb-13 23:31N 37°48' W 122°24'0 0.0
2018-Feb-13 23:00N 37°48' W 122°24'0 0.0
2018-Feb-13 22:31N 37°48' W 122°24'0 0.0
2018-Feb-13 22:01N 37°48' W 122°24'0 0.0
2018-Feb-13 21:30N 37°48' W 122°24'3 6.1
2018-Feb-13 21:00N 37°51' W 122°25'611.8
2018-Feb-13 20:30N 37°57' W 122°26'510.7
2018-Feb-13 20:00N 38°02' W 122°22'5 9.7
2018-Feb-13 19:30N 38°03' W 122°17'1 1.1
2018-Feb-13 18:58N 38°03' W 122°16'0 0.1
2018-Feb-13 18:29N 38°03' W 122°16'1 2.9
2018-Feb-13 18:00N 38°03' W 122°18'0 0.5
2018-Feb-13 17:30N 38°03' W 122°18'3 6.7
2018-Feb-13 17:00N 38°02' W 122°22'4 8.7
2018-Feb-13 16:30N 37°59' W 122°25'4 8.4
2018-Feb-13 16:00N 37°55' W 122°24'2 4.5
2018-Feb-13 15:31N 37°55' W 122°22'0 0.0
2018-Feb-13 15:00N 37°55' W 122°22'0 0.0
2018-Feb-13 14:30N 37°55' W 122°22'0 0.0
2018-Feb-13 14:01N 37°55' W 122°22'0 0.0
2018-Feb-13 13:31N 37°55' W 122°22'0 0.4
2018-Feb-13 13:00N 37°55' W 122°22'0 0.3
2018-Feb-13 12:30N 37°55' W 122°22'1 1.8
2018-Feb-13 12:00N 37°54' W 122°22'2 4.8
2018-Feb-13 11:30N 37°55' W 122°25'2 3.9
2018-Feb-13 11:01N 37°53' W 122°25'0 0.7
2018-Feb-13 10:30N 37°53' W 122°25'2 3.7
2018-Feb-13 10:00N 37°55' W 122°25'1 1.4
2018-Feb-13 09:30N 37°55' W 122°25'1 1.4
2018-Feb-13 09:00N 37°55' W 122°25'4 8.3
2018-Feb-13 08:30N 37°51' W 122°25'5 9.4
2018-Feb-13 08:01N 37°47' W 122°21'0 0.6
2018-Feb-13 07:30N 37°47' W 122°21'2 3.3
2018-Feb-13 07:01N 37°48' W 122°21'0 0.0
2018-Feb-13 06:31N 37°48' W 122°21'1 1.9
2018-Feb-13 06:01N 37°48' W 122°20'1 1.2
2018-Feb-13 05:30N 37°48' W 122°19'0 0.0
2018-Feb-13 05:00N 37°48' W 122°19'1 2.8
2018-Feb-13 04:30N 37°49' W 122°20'0 0.1
2018-Feb-13 04:00N 37°49' W 122°20'0 0.0
2018-Feb-13 03:31N 37°49' W 122°20'0 0.0
2018-Feb-13 03:01N 37°49' W 122°20'0 0.1
2018-Feb-13 02:30N 37°49' W 122°20'0 0.0
2018-Feb-13 02:00N 37°49' W 122°20'0 0.0
2018-Feb-13 01:30N 37°49' W 122°20'0 0.1
2018-Feb-13 01:01N 37°49' W 122°20'0 0.1
2018-Feb-13 00:30N 37°49' W 122°20'1 1.1
2018-Feb-13 00:00N 37°49' W 122°20'2 3.9
2018-Feb-12 23:30N 37°48' W 122°22'2 3.1
2018-Feb-12 23:00N 37°48' W 122°24'0 0.0
2018-Feb-12 22:30N 37°48' W 122°24'0 0.0
2018-Feb-12 22:00N 37°48' W 122°24'0 0.0
2018-Feb-12 21:30N 37°48' W 122°24'0 0.0
2018-Feb-12 21:01N 37°48' W 122°24'0 0.0
2018-Feb-12 20:31N 37°48' W 122°24'0 0.6
2018-Feb-12 20:00N 37°48' W 122°24'2 3.9
2018-Feb-12 19:30N 37°47' W 122°21'4 8.5
2018-Feb-12 19:00N 37°51' W 122°24'510.5
2018-Feb-12 18:30N 37°56' W 122°27'5 9.6
2018-Feb-12 18:00N 38°00' W 122°25'5 9.2
2018-Feb-12 17:30N 38°03' W 122°20'4 7.5
2018-Feb-12 17:00N 38°04' W 122°16'2 4.4
2018-Feb-12 16:30N 38°04' W 122°13'3 4.6
2018-Feb-12 15:45N 38°02' W 122°09'2 2.2
2018-Feb-12 14:41N 38°03' W 122°06'1 5.0
2018-Feb-12 14:29N 38°02' W 122°07'1 0.2
2018-Feb-12 06:24N 38°02' W 122°09'1 3.1
2018-Feb-12 06:00N 38°02' W 122°07'1 0.2
2018-Feb-11 20:37N 38°02' W 122°09'3 6.3
2018-Feb-11 20:13N 38°03' W 122°06'0 0.0
2018-Feb-11 19:58N 38°03' W 122°06'2 2.5
2018-Feb-11 19:19N 38°02' W 122°08'3 5.5
2018-Feb-11 18:50N 38°03' W 122°11'2 6.9
2018-Feb-11 18:30N 38°04' W 122°14'5 9.5
2018-Feb-11 18:00N 38°03' W 122°20'5 9.7
2018-Feb-11 17:30N 38°00' W 122°25'4 7.8
2018-Feb-11 17:00N 37°57' W 122°26'4 7.9
2018-Feb-11 16:31N 37°54' W 122°22'1 1.2
2018-Feb-11 16:00N 37°55' W 122°22'0 0.0
2018-Feb-11 15:31N 37°55' W 122°22'0 0.3
2018-Feb-11 15:00N 37°55' W 122°22'0 0.1
2018-Feb-11 14:31N 37°55' W 122°22'0 0.1
2018-Feb-11 14:00N 37°55' W 122°22'0 0.0
2018-Feb-11 13:30N 37°55' W 122°22'0 0.1
2018-Feb-11 13:00N 37°55' W 122°22'0 0.0
2018-Feb-11 12:30N 37°55' W 122°22'0 0.1
2018-Feb-11 12:00N 37°55' W 122°22'0 0.1
2018-Feb-11 11:30N 37°55' W 122°22'0 0.0
2018-Feb-11 10:59N 37°55' W 122°22'0 0.0
2018-Feb-11 10:30N 37°55' W 122°22'0 0.0
2018-Feb-11 10:00N 37°55' W 122°22'0 0.0
2018-Feb-11 09:30N 37°55' W 122°22'0 0.1
2018-Feb-11 09:01N 37°55' W 122°22'0 0.0
2018-Feb-11 08:31N 37°55' W 122°22'0 0.0
2018-Feb-11 08:00N 37°55' W 122°22'0 0.0
2018-Feb-11 07:31N 37°55' W 122°22'0 0.0
2018-Feb-11 07:00N 37°55' W 122°22'0 0.0
2018-Feb-11 06:30N 37°55' W 122°22'0 0.0
2018-Feb-11 06:00N 37°55' W 122°22'0 0.0
2018-Feb-11 05:30N 37°55' W 122°22'0 0.0
2018-Feb-11 05:01N 37°55' W 122°22'2 3.6
2018-Feb-11 04:31N 37°54' W 122°24'1 1.8
2018-Feb-11 04:00N 37°55' W 122°25'0 0.0
2018-Feb-11 03:30N 37°55' W 122°25'0 0.0
2018-Feb-11 03:01N 37°55' W 122°25'2 3.8
2018-Feb-11 02:30N 37°54' W 122°22'1 1.6
2018-Feb-11 02:01N 37°55' W 122°22'0 0.0
2018-Feb-11 01:30N 37°55' W 122°22'0 0.0
2018-Feb-11 01:00N 37°55' W 122°22'0 0.0
2018-Feb-11 00:30N 37°55' W 122°22'0 0.0
2018-Feb-10 23:59N 37°55' W 122°22'0 0.0
2018-Feb-10 23:30N 37°55' W 122°22'0 0.0
2018-Feb-10 23:00N 37°55' W 122°22'0 0.0
2018-Feb-10 22:31N 37°55' W 122°22'0 0.0
2018-Feb-10 22:01N 37°55' W 122°22'0 0.0
2018-Feb-10 21:30N 37°55' W 122°22'0 0.0
2018-Feb-10 21:01N 37°55' W 122°22'0 0.1
2018-Feb-10 20:31N 37°55' W 122°22'0 0.1
2018-Feb-10 20:00N 37°55' W 122°22'0 0.0
2018-Feb-10 19:31N 37°55' W 122°22'0 0.1
2018-Feb-10 18:59N 37°55' W 122°22'0 0.0
2018-Feb-10 18:29N 37°55' W 122°22'0 0.1
2018-Feb-10 18:00N 37°55' W 122°22'0 0.0
2018-Feb-10 17:30N 37°55' W 122°22'0 0.1
2018-Feb-10 17:00N 37°55' W 122°22'0 0.1
2018-Feb-10 16:30N 37°55' W 122°22'0 0.0
2018-Feb-10 16:00N 37°55' W 122°22'0 0.1
2018-Feb-10 15:30N 37°55' W 122°22'0 0.0
2018-Feb-10 15:00N 37°55' W 122°22'0 0.0
2018-Feb-10 14:30N 37°55' W 122°22'0 0.1
2018-Feb-10 14:00N 37°55' W 122°22'0 0.0
2018-Feb-10 13:28N 37°55' W 122°22'0 0.0
2018-Feb-10 13:01N 37°55' W 122°22'0 0.0
2018-Feb-10 12:30N 37°55' W 122°22'0 0.3
2018-Feb-10 12:00N 37°55' W 122°22'0 0.6
2018-Feb-10 11:31N 37°54' W 122°22'2 4.1
2018-Feb-10 11:00N 37°55' W 122°24'2 4.5
2018-Feb-10 10:31N 37°52' W 122°25'5 9.0
2018-Feb-10 10:00N 37°49' W 122°29'2 3.9
2018-Feb-10 09:30N 37°49' W 122°31'0 0.4
2018-Feb-10 09:01N 37°49' W 122°31'3 6.6
2018-Feb-10 08:30N 37°49' W 122°27'  

Dump ship's entire track history